createdAt,value
2019-05-23T00:02:14.812Z,11.12
2019-05-23T00:05:09.581Z,12.88
2019-05-23T00:07:56.377Z,12.40
2019-05-23T00:10:52.906Z,13.35
2019-05-23T00:13:34.600Z,12.40
2019-05-23T00:16:04.215Z,12.88
2019-05-23T00:18:33.394Z,12.63
2019-05-23T00:21:02.971Z,13.60
2019-05-23T00:23:32.251Z,11.48
2019-05-23T00:26:00.259Z,13.18
2019-05-23T00:28:27.701Z,12.58
2019-05-23T00:30:58.680Z,11.73
2019-05-23T00:33:27.974Z,12.10
2019-05-23T00:35:56.423Z,12.43
2019-05-23T00:38:24.088Z,11.48
2019-05-23T00:40:53.274Z,10.98
2019-05-23T00:43:21.784Z,10.65
2019-05-23T00:45:49.096Z,13.00
2019-05-23T00:48:17.840Z,13.22
2019-05-23T00:50:45.060Z,9.88
2019-05-23T00:53:13.009Z,11.68
2019-05-23T00:55:40.695Z,10.68
2019-05-23T00:58:09.194Z,9.65
2019-05-23T01:00:36.377Z,13.43
2019-05-23T01:03:06.153Z,9.75
2019-05-23T01:05:35.143Z,11.03
2019-05-23T01:08:03.250Z,8.68
2019-05-23T01:10:31.655Z,8.98
2019-05-23T01:12:59.575Z,13.65
2019-05-23T01:15:28.147Z,10.78
2019-05-23T01:17:55.790Z,9.85
2019-05-23T01:20:31.690Z,10.88
2019-05-23T01:23:00.799Z,9.40
2019-05-23T01:25:28.500Z,10.55
2019-05-23T01:27:56.031Z,13.38
2019-05-23T01:30:27.357Z,10.38
2019-05-23T01:32:55.327Z,12.00
2019-05-23T01:35:23.047Z,11.18
2019-05-23T01:37:50.599Z,11.78
2019-05-23T01:40:20.004Z,11.35
2019-05-23T01:42:47.049Z,11.60
2019-05-23T01:45:15.972Z,12.23
2019-05-23T01:47:43.532Z,12.18
2019-05-23T01:50:13.517Z,17.00
2019-05-23T01:52:41.761Z,11.95
2019-05-23T01:55:09.615Z,11.68
2019-05-23T01:57:38.518Z,11.60
2019-05-23T02:00:10.894Z,13.45
2019-05-23T02:02:38.647Z,12.65
2019-05-23T02:05:07.015Z,11.95
2019-05-23T02:07:36.815Z,14.10
2019-05-23T02:10:06.046Z,15.05
2019-05-23T02:12:33.774Z,11.75
2019-05-23T02:15:02.077Z,13.72
2019-05-23T02:17:29.778Z,12.50
2019-05-23T02:19:58.690Z,12.95
2019-05-23T02:22:26.095Z,11.95
2019-05-23T02:24:53.955Z,12.63
2019-05-23T02:27:22.634Z,12.33
2019-05-23T02:29:49.831Z,13.03
2019-05-23T02:32:18.103Z,12.35
2019-05-23T02:34:48.629Z,12.45
2019-05-23T02:37:28.629Z,11.60
2019-05-23T02:40:07.987Z,14.15
2019-05-23T02:42:44.999Z,13.32
2019-05-23T02:45:18.275Z,15.18
2019-05-23T02:47:48.921Z,14.60
2019-05-23T02:50:34.223Z,13.10
2019-05-23T02:53:02.419Z,14.68
2019-05-23T02:55:35.476Z,17.15
2019-05-23T02:58:14.102Z,14.80
2019-05-23T03:00:54.712Z,14.68
2019-05-23T03:03:25.100Z,14.98
2019-05-23T03:05:52.655Z,21.87
2019-05-23T03:08:21.943Z,16.60
2019-05-23T03:10:57.235Z,17.02
2019-05-23T03:13:27.678Z,19.05
2019-05-23T03:15:56.804Z,16.95
2019-05-23T03:18:25.285Z,17.82
2019-05-23T03:20:52.245Z,19.92
2019-05-23T03:23:19.668Z,18.10
2019-05-23T03:26:29.849Z,17.35
2019-05-23T03:28:58.322Z,17.30
2019-05-23T03:31:38.379Z,17.10
2019-05-23T03:34:08.280Z,19.10
2019-05-23T03:36:37.074Z,17.73
2019-05-23T03:39:06.904Z,17.35
2019-05-23T03:41:35.776Z,16.80
2019-05-23T03:44:04.275Z,16.52
2019-05-23T03:46:33.564Z,18.30
2019-05-23T03:49:01.667Z,17.60
2019-05-23T03:51:29.804Z,18.98
2019-05-23T03:54:01.113Z,17.00
2019-05-23T03:56:29.604Z,17.57
2019-05-23T03:58:59.974Z,19.32
2019-05-23T04:01:46.215Z,21.42
2019-05-23T04:04:00.377Z,18.12
2019-05-23T04:06:28.061Z,18.73
2019-05-23T04:08:57.057Z,21.97
2019-05-23T04:11:24.013Z,19.07
2019-05-23T04:13:51.666Z,18.48
2019-05-23T04:16:19.679Z,18.70
2019-05-23T04:18:47.143Z,19.67
2019-05-23T04:21:14.607Z,25.65
2019-05-23T04:23:42.117Z,19.95
2019-05-23T04:26:09.674Z,20.62
2019-05-23T04:28:36.755Z,36.85
2019-05-23T04:31:04.031Z,20.65
2019-05-23T04:33:31.450Z,20.17
2019-05-23T04:35:59.712Z,25.00
2019-05-23T04:38:26.860Z,25.17
2019-05-23T04:40:54.536Z,22.65
2019-05-23T04:43:21.716Z,20.27
2019-05-23T04:45:49.234Z,24.32
2019-05-23T04:48:17.002Z,22.60
2019-05-23T04:50:45.179Z,22.22
2019-05-23T04:53:12.940Z,20.60
2019-05-23T04:55:40.510Z,20.55
2019-05-23T04:58:08.150Z,25.20
2019-05-23T05:00:35.651Z,21.52
2019-05-23T05:03:04.974Z,21.70
2019-05-23T05:05:32.519Z,24.10
2019-05-23T05:07:59.976Z,23.07
2019-05-23T05:10:28.823Z,24.87
2019-05-23T05:12:57.031Z,21.62
2019-05-23T05:15:25.127Z,20.48
2019-05-23T05:17:52.130Z,31.52
2019-05-23T05:20:19.612Z,23.35
2019-05-23T05:22:48.095Z,27.13
2019-05-23T05:25:16.774Z,19.82
2019-05-23T05:27:44.248Z,29.42
2019-05-23T05:30:11.802Z,20.80
2019-05-23T05:32:44.798Z,24.87
2019-05-23T05:35:08.571Z,30.23
2019-05-23T05:37:36.121Z,21.20
2019-05-23T05:40:05.590Z,23.22
2019-05-23T05:42:33.455Z,23.22
2019-05-23T05:45:01.534Z,22.70
2019-05-23T05:47:29.204Z,29.90
2019-05-23T05:49:57.314Z,23.83
2019-05-23T05:52:24.921Z,22.70
2019-05-23T05:54:52.593Z,34.27
2019-05-23T05:57:19.873Z,22.77
2019-05-23T05:59:47.248Z,25.97
2019-05-23T06:02:16.621Z,20.70
2019-05-23T06:04:44.476Z,19.27
2019-05-23T06:07:37.276Z,22.30
2019-05-23T06:10:10.560Z,19.52
2019-05-23T06:12:37.782Z,22.58
2019-05-23T06:15:05.988Z,18.30
2019-05-23T06:17:33.166Z,16.80
2019-05-23T06:20:00.588Z,19.40
2019-05-23T06:22:29.824Z,18.98
2019-05-23T06:24:58.233Z,14.95
2019-05-23T06:27:26.329Z,18.57
2019-05-23T06:29:54.118Z,17.05
2019-05-23T06:32:24.705Z,15.08
2019-05-23T06:34:54.211Z,11.83
2019-05-23T06:37:21.825Z,10.70
2019-05-23T06:39:48.932Z,10.90
2019-05-23T06:42:16.578Z,10.63
2019-05-23T06:44:43.641Z,9.78
2019-05-23T06:47:10.770Z,10.78
2019-05-23T06:49:38.433Z,8.85
2019-05-23T06:52:05.697Z,7.83
2019-05-23T06:54:33.111Z,9.33
2019-05-23T06:57:00.396Z,10.58
2019-05-23T06:59:28.634Z,9.25
2019-05-23T07:01:56.138Z,7.33
2019-05-23T07:04:23.895Z,6.83
2019-05-23T07:06:51.338Z,6.12
2019-05-23T07:09:18.750Z,6.92
2019-05-23T07:11:45.858Z,7.15
2019-05-23T07:14:13.748Z,7.87
2019-05-23T07:16:41.650Z,6.15
2019-05-23T07:19:09.431Z,5.85
2019-05-23T07:21:37.358Z,4.97
2019-05-23T07:24:05.073Z,5.65
2019-05-23T07:26:33.258Z,7.00
2019-05-23T07:29:00.487Z,7.78
2019-05-23T07:31:27.577Z,8.20
2019-05-23T07:34:01.974Z,8.28
2019-05-23T07:36:23.874Z,7.05
2019-05-23T07:38:50.844Z,7.83
2019-05-23T07:41:18.044Z,6.85
2019-05-23T07:43:45.421Z,6.47
2019-05-23T07:46:13.358Z,9.18
2019-05-23T07:48:40.405Z,7.20
2019-05-23T07:51:07.614Z,7.35
2019-05-23T07:53:44.417Z,7.35
2019-05-23T07:56:12.622Z,6.03
2019-05-23T07:58:40.102Z,5.90
2019-05-23T08:01:09.932Z,5.60
2019-05-23T08:03:40.102Z,11.53
2019-05-23T08:06:07.643Z,7.65
2019-05-23T08:08:35.075Z,8.03
2019-05-23T08:11:02.068Z,5.60
2019-05-23T08:13:29.957Z,5.30
2019-05-23T08:15:57.347Z,6.53
2019-05-23T08:18:24.432Z,5.72
2019-05-23T08:20:52.102Z,4.92
2019-05-23T08:23:19.728Z,5.97
2019-05-23T08:25:46.940Z,7.83
2019-05-23T08:28:14.346Z,6.03
2019-05-23T08:30:41.436Z,4.40
2019-05-23T08:33:10.429Z,5.22
2019-05-23T08:35:38.096Z,5.83
2019-05-23T08:38:05.942Z,3.45
2019-05-23T08:40:33.546Z,3.77
2019-05-23T08:43:00.899Z,7.30
2019-05-23T08:45:28.049Z,3.98
2019-05-23T08:47:55.284Z,3.52
2019-05-23T08:50:23.452Z,3.75
2019-05-23T08:52:50.744Z,3.55
2019-05-23T08:55:20.248Z,3.40
2019-05-23T08:57:47.821Z,5.87
2019-05-23T09:00:15.946Z,4.58
2019-05-23T09:02:44.416Z,2.80
2019-05-23T09:05:11.901Z,4.58
2019-05-23T09:07:38.900Z,7.40
2019-05-23T09:10:06.433Z,3.58
2019-05-23T09:12:34.611Z,3.83
2019-05-23T09:15:01.731Z,3.77
2019-05-23T09:17:29.124Z,3.95
2019-05-23T09:19:56.515Z,3.72
2019-05-23T09:22:23.638Z,3.60
2019-05-23T09:24:50.845Z,4.40
2019-05-23T09:27:17.897Z,4.33
2019-05-23T09:29:45.643Z,3.55
2019-05-23T09:32:13.374Z,5.55
2019-05-23T09:34:40.481Z,3.80
2019-05-23T09:37:08.943Z,3.55
2019-05-23T09:39:38.286Z,4.15
2019-05-23T09:42:05.582Z,5.20
2019-05-23T09:44:33.130Z,4.30
2019-05-23T09:47:00.608Z,4.62
2019-05-23T09:49:27.930Z,5.90
2019-05-23T09:51:59.133Z,3.90
2019-05-23T09:54:24.638Z,4.70
2019-05-23T09:56:52.214Z,4.20
2019-05-23T09:59:19.302Z,3.75
2019-05-23T10:01:46.930Z,4.08
2019-05-23T10:04:14.194Z,4.90
2019-05-23T10:06:41.470Z,3.75
2019-05-23T10:09:08.862Z,5.03
2019-05-23T10:11:36.228Z,3.35
2019-05-23T10:14:05.744Z,4.05
2019-05-23T10:16:33.191Z,3.58
2019-05-23T10:19:00.241Z,3.98
2019-05-23T10:21:27.654Z,4.15
2019-05-23T10:23:54.746Z,4.85
2019-05-23T10:26:21.938Z,5.25
2019-05-23T10:28:49.189Z,4.50
2019-05-23T10:31:16.869Z,4.35
2019-05-23T10:33:44.387Z,5.08
2019-05-23T10:36:11.913Z,5.10
2019-05-23T10:38:39.687Z,6.20
2019-05-23T10:41:07.567Z,4.58
2019-05-23T10:43:34.852Z,5.17
2019-05-23T10:46:02.052Z,6.92
2019-05-23T10:48:29.567Z,4.72
2019-05-23T10:50:56.664Z,3.75
2019-05-23T10:53:23.798Z,5.92
2019-05-23T10:55:50.959Z,4.03
2019-05-23T10:58:18.355Z,4.78
2019-05-23T11:00:46.835Z,4.55
2019-05-23T11:03:14.635Z,4.33
2019-05-23T11:05:42.047Z,3.62
2019-05-23T11:08:10.009Z,4.80
2019-05-23T11:10:37.567Z,4.10
2019-05-23T11:13:04.748Z,4.25
2019-05-23T11:15:32.207Z,4.83
2019-05-23T11:17:59.292Z,4.80
2019-05-23T11:20:26.776Z,4.87
2019-05-23T11:22:54.944Z,3.90
2019-05-23T11:25:23.960Z,4.20
2019-05-23T11:27:50.981Z,5.90
2019-05-23T11:30:31.291Z,4.40
2019-05-23T11:32:58.385Z,4.78
2019-05-23T11:35:27.403Z,6.28
2019-05-23T11:37:54.841Z,8.55
2019-05-23T11:40:21.946Z,5.80
2019-05-23T11:42:52.516Z,4.83
2019-05-23T11:45:18.570Z,18.80
2019-05-23T11:47:45.813Z,5.17
2019-05-23T11:50:14.282Z,4.67
2019-05-23T11:52:41.312Z,4.87
2019-05-23T11:55:09.111Z,4.42
2019-05-23T11:57:38.025Z,3.40
2019-05-23T12:00:09.314Z,6.35
2019-05-23T12:02:39.944Z,3.50
2019-05-23T12:05:11.448Z,4.50
2019-05-23T12:07:39.298Z,5.65
2019-05-23T12:10:07.228Z,4.62
2019-05-23T12:12:34.740Z,4.58
2019-05-23T12:15:02.064Z,4.37
2019-05-23T12:17:30.597Z,3.45
2019-05-23T12:19:57.841Z,3.62
2019-05-23T12:22:26.026Z,5.10
2019-05-23T12:24:53.148Z,6.50
2019-05-23T12:27:20.311Z,3.83
2019-05-23T12:29:48.370Z,4.28
2019-05-23T12:32:15.681Z,5.78
2019-05-23T12:34:42.778Z,6.53
2019-05-23T12:37:19.986Z,6.12
2019-05-23T12:39:40.395Z,4.58
2019-05-23T12:42:07.484Z,4.50
2019-05-23T12:44:34.793Z,4.37
2019-05-23T12:47:03.952Z,3.15
2019-05-23T12:49:36.163Z,5.80
2019-05-23T12:52:05.802Z,3.27
2019-05-23T12:54:33.887Z,5.45
2019-05-23T12:57:01.117Z,4.47
2019-05-23T12:59:28.312Z,4.75
2019-05-23T13:01:57.529Z,3.70
2019-05-23T13:04:26.469Z,4.40
2019-05-23T13:06:54.091Z,7.85
2019-05-23T13:09:21.380Z,5.83
2019-05-23T13:11:48.454Z,6.53
2019-05-23T13:14:16.355Z,4.62
2019-05-23T13:16:43.702Z,5.40
2019-05-23T13:19:10.871Z,3.30
2019-05-23T13:21:37.966Z,4.03
2019-05-23T13:24:05.607Z,4.20
2019-05-23T13:26:33.611Z,3.85
2019-05-23T13:29:00.977Z,6.15
2019-05-23T13:31:28.625Z,4.85
2019-05-23T13:33:56.044Z,4.85
2019-05-23T13:36:23.568Z,4.87
2019-05-23T13:38:50.937Z,4.30
2019-05-23T13:41:18.987Z,3.92
2019-05-23T13:43:46.642Z,4.10
2019-05-23T13:46:13.856Z,4.42
2019-05-23T13:48:41.290Z,6.22
2019-05-23T13:51:08.801Z,4.22
2019-05-23T13:53:36.028Z,5.20
2019-05-23T13:56:03.529Z,3.85
2019-05-23T13:58:31.881Z,4.10
2019-05-23T14:00:59.268Z,3.95
2019-05-23T14:03:26.762Z,5.08
2019-05-23T14:05:54.252Z,4.47
2019-05-23T14:08:21.275Z,5.70
2019-05-23T14:10:48.875Z,4.80
2019-05-23T14:13:18.864Z,5.58
2019-05-23T14:15:48.114Z,4.50
2019-05-23T14:18:18.559Z,4.33
2019-05-23T14:20:46.129Z,5.50
2019-05-23T14:23:20.135Z,5.65
2019-05-23T14:25:47.240Z,4.90
2019-05-23T14:28:15.355Z,3.02
2019-05-23T14:30:50.411Z,4.08
2019-05-23T14:33:35.866Z,3.45
2019-05-23T14:36:06.371Z,4.28
2019-05-23T14:38:34.469Z,3.50
2019-05-23T14:41:01.680Z,4.08
2019-05-23T14:43:30.640Z,3.52
2019-05-23T14:46:06.231Z,3.45
2019-05-23T14:48:51.950Z,3.65
2019-05-23T14:51:28.061Z,3.83
2019-05-23T14:54:00.296Z,3.77
2019-05-23T14:56:30.172Z,3.15
2019-05-23T14:58:58.168Z,4.25
2019-05-23T15:01:27.730Z,3.98
2019-05-23T15:03:55.523Z,3.98
2019-05-23T15:06:22.910Z,5.30
2019-05-23T15:08:51.777Z,4.47
2019-05-23T15:11:19.037Z,5.20
2019-05-23T15:13:46.284Z,5.75
2019-05-23T15:16:15.166Z,3.92
2019-05-23T15:18:42.255Z,4.00
2019-05-23T15:21:10.441Z,4.00
2019-05-23T15:23:38.405Z,4.53
2019-05-23T15:26:21.777Z,4.45
2019-05-23T15:28:34.376Z,4.70
2019-05-23T15:31:03.206Z,3.90
2019-05-23T15:33:30.223Z,3.87
2019-05-23T15:35:57.496Z,3.47
2019-05-23T15:38:24.579Z,5.05
2019-05-23T15:40:51.672Z,2.62
2019-05-23T15:43:19.362Z,6.00
2019-05-23T15:45:46.750Z,4.72
2019-05-23T15:48:14.343Z,4.37
2019-05-23T15:50:47.308Z,4.55
2019-05-23T15:53:25.173Z,4.92
2019-05-23T15:56:26.003Z,2.90
2019-05-23T15:58:56.967Z,6.03
2019-05-23T16:01:31.562Z,3.05
2019-05-23T16:04:09.664Z,5.45
2019-05-23T16:06:36.919Z,3.05
2019-05-23T16:09:25.423Z,3.50
2019-05-23T16:11:38.820Z,4.12
2019-05-23T16:14:07.668Z,2.65
2019-05-23T16:16:35.449Z,3.52
2019-05-23T16:19:03.247Z,2.50
2019-05-23T16:21:31.653Z,2.65
2019-05-23T16:23:59.398Z,4.45
2019-05-23T16:26:26.659Z,8.55
2019-05-23T16:28:54.586Z,3.35
2019-05-23T16:31:22.337Z,4.53
2019-05-23T16:33:49.582Z,2.42
2019-05-23T16:36:17.888Z,2.67
2019-05-23T16:38:45.078Z,2.95
2019-05-23T16:41:12.097Z,2.35
2019-05-23T16:43:39.219Z,2.35
2019-05-23T16:46:06.359Z,5.10
2019-05-23T16:48:33.418Z,5.47
2019-05-23T16:51:00.542Z,5.10
2019-05-23T16:53:28.133Z,3.42
2019-05-23T16:56:04.953Z,2.98
2019-05-23T16:58:47.593Z,4.78
2019-05-23T17:01:24.627Z,3.17
2019-05-23T17:04:19.979Z,3.52
2019-05-23T17:06:56.695Z,1.90
2019-05-23T17:09:32.063Z,2.67
2019-05-23T17:12:18.171Z,3.12
2019-05-23T17:15:05.164Z,4.87
2019-05-23T17:18:10.559Z,3.08
2019-05-23T17:20:58.635Z,4.85
2019-05-23T17:23:57.520Z,2.15
2019-05-23T17:26:43.385Z,3.60
2019-05-23T17:29:18.351Z,2.02
2019-05-23T17:31:47.809Z,1.72
2019-05-23T17:34:15.283Z,1.65
2019-05-23T17:36:42.951Z,1.75
2019-05-23T17:39:11.891Z,2.10
2019-05-23T17:41:39.597Z,4.33
2019-05-23T17:44:06.882Z,3.45
2019-05-23T17:46:34.344Z,3.75
2019-05-23T17:49:06.173Z,4.60
2019-05-23T17:51:33.263Z,5.30
2019-05-23T17:54:00.474Z,2.30
2019-05-23T17:56:27.483Z,3.25
2019-05-23T17:58:54.660Z,4.12
2019-05-23T18:01:24.163Z,2.95
2019-05-23T18:03:51.779Z,2.30
2019-05-23T18:06:19.327Z,6.47
2019-05-23T18:08:48.628Z,2.83
2019-05-23T18:11:16.868Z,3.58
2019-05-23T18:13:44.976Z,5.67
2019-05-23T18:16:13.055Z,7.08
2019-05-23T18:18:40.749Z,3.80
2019-05-23T18:21:08.796Z,3.10
2019-05-23T18:23:36.483Z,1.65
2019-05-23T18:26:06.093Z,3.77
2019-05-23T18:28:34.714Z,1.80
2019-05-23T18:31:10.653Z,1.60
2019-05-23T18:33:38.926Z,2.33
2019-05-23T18:36:08.214Z,2.37
2019-05-23T18:38:37.119Z,1.85
2019-05-23T18:41:08.885Z,2.00
2019-05-23T18:43:37.550Z,2.98
2019-05-23T18:46:09.892Z,3.10
2019-05-23T18:48:37.307Z,2.22
2019-05-23T18:51:05.478Z,2.30
2019-05-23T18:53:33.934Z,3.77
2019-05-23T18:56:02.312Z,3.77
2019-05-23T18:58:30.051Z,4.60
2019-05-23T19:01:13.393Z,2.72
2019-05-23T19:03:41.586Z,2.20
2019-05-23T19:06:09.757Z,2.22
2019-05-23T19:08:38.466Z,2.85
2019-05-23T19:11:20.051Z,3.30
2019-05-23T19:13:36.323Z,2.25
2019-05-23T19:16:04.219Z,2.55
2019-05-23T19:18:33.348Z,3.20
2019-05-23T19:21:03.803Z,5.05
2019-05-23T19:23:32.240Z,5.55
2019-05-23T19:26:01.101Z,3.05
2019-05-23T19:28:30.144Z,3.20
2019-05-23T19:30:58.873Z,3.70
2019-05-23T19:33:26.545Z,3.35
2019-05-23T19:35:54.080Z,2.65
2019-05-23T19:38:21.353Z,2.77
2019-05-23T19:40:49.734Z,3.37
2019-05-23T19:43:16.889Z,3.52
2019-05-23T19:45:44.176Z,5.17
2019-05-23T19:48:11.275Z,7.78
2019-05-23T19:50:41.003Z,5.62
2019-05-23T19:53:08.207Z,4.87
2019-05-23T19:55:36.118Z,5.72
2019-05-23T19:58:04.360Z,5.95
2019-05-23T20:00:33.211Z,4.20
2019-05-23T20:03:03.865Z,4.85
2019-05-23T20:05:32.732Z,6.95
2019-05-23T20:08:08.748Z,5.80
2019-05-23T20:10:39.324Z,4.12
2019-05-23T20:13:06.682Z,5.22
2019-05-23T20:15:34.025Z,4.80
2019-05-23T20:18:01.302Z,4.12
2019-05-23T20:20:29.551Z,7.03
2019-05-23T20:22:57.098Z,6.35
2019-05-23T20:25:24.775Z,5.87
2019-05-23T20:27:51.887Z,6.28
2019-05-23T20:30:51.469Z,4.80
2019-05-23T20:33:18.806Z,4.72
2019-05-23T20:35:46.162Z,4.92
2019-05-23T20:38:13.597Z,5.22
2019-05-23T20:40:40.850Z,5.35
2019-05-23T20:43:08.285Z,5.37
2019-05-23T20:45:36.524Z,5.08
2019-05-23T20:48:03.943Z,5.67
2019-05-23T20:50:31.810Z,7.47
2019-05-23T20:52:58.934Z,3.87
2019-05-23T20:55:25.966Z,4.50
2019-05-23T20:57:52.992Z,4.97
2019-05-23T21:00:26.863Z,6.53
2019-05-23T21:02:54.162Z,5.25
2019-05-23T21:05:21.677Z,4.58
2019-05-23T21:07:48.997Z,5.10
2019-05-23T21:10:35.090Z,5.47
2019-05-23T21:13:02.271Z,4.28
2019-05-23T21:15:29.382Z,4.87
2019-05-23T21:17:58.383Z,5.58
2019-05-23T21:20:26.082Z,4.53
2019-05-23T21:22:53.193Z,4.17
2019-05-23T21:25:20.972Z,5.40
2019-05-23T21:27:48.315Z,3.90
2019-05-23T21:30:15.462Z,5.40
2019-05-23T21:32:42.812Z,5.30
2019-05-23T21:35:09.927Z,5.85
2019-05-23T21:37:37.126Z,7.10
2019-05-23T21:40:04.943Z,6.75
2019-05-23T21:42:46.654Z,6.60
2019-05-23T21:45:01.003Z,5.55
2019-05-23T21:47:28.199Z,6.72
2019-05-23T21:49:55.356Z,6.47
2019-05-23T21:52:22.347Z,4.97
2019-05-23T21:54:49.572Z,5.15
2019-05-23T21:57:16.601Z,6.05
2019-05-23T21:59:43.744Z,5.00
2019-05-23T22:02:18.755Z,9.35
2019-05-23T22:04:51.905Z,6.75
2019-05-23T22:07:19.247Z,6.50
2019-05-23T22:09:46.695Z,5.22
2019-05-23T22:12:14.694Z,5.22
2019-05-23T22:14:42.386Z,4.75
2019-05-23T22:17:09.882Z,4.42
2019-05-23T22:19:36.954Z,4.70
2019-05-23T22:22:04.358Z,4.85
2019-05-23T22:24:31.852Z,4.30
2019-05-23T22:26:59.163Z,6.85
2019-05-23T22:29:26.385Z,4.83
2019-05-23T22:31:56.394Z,6.85
2019-05-23T22:34:35.311Z,5.28
2019-05-23T22:37:05.550Z,5.83
2019-05-23T22:39:32.721Z,4.42
2019-05-23T22:42:00.183Z,4.42
2019-05-23T22:44:27.418Z,4.85
2019-05-23T22:46:54.840Z,7.78
2019-05-23T22:49:21.918Z,5.10
2019-05-23T22:51:48.994Z,5.75
2019-05-23T22:54:16.486Z,6.87
2019-05-23T22:56:43.595Z,7.17
2019-05-23T22:59:10.684Z,9.38
2019-05-23T23:01:37.982Z,15.00
2019-05-23T23:04:05.170Z,11.68
2019-05-23T23:06:32.580Z,11.22
2019-05-23T23:08:59.629Z,11.25
2019-05-23T23:11:27.150Z,8.73
2019-05-23T23:13:54.723Z,10.63
2019-05-23T23:16:22.246Z,11.55
2019-05-23T23:18:49.678Z,10.20
2019-05-23T23:21:16.791Z,12.15
2019-05-23T23:23:45.183Z,10.85
2019-05-23T23:26:12.165Z,9.28
2019-05-23T23:28:39.159Z,10.15
2019-05-23T23:31:06.253Z,10.80
2019-05-23T23:33:33.427Z,12.45
2019-05-23T23:36:00.820Z,12.20
2019-05-23T23:38:27.846Z,12.88
2019-05-23T23:40:55.216Z,12.05
2019-05-23T23:43:22.592Z,9.98
2019-05-23T23:46:08.507Z,12.30
2019-05-23T23:48:53.873Z,11.48
2019-05-23T23:51:39.112Z,13.78
2019-05-23T23:54:24.871Z,11.83
2019-05-23T23:57:10.809Z,17.07
2019-05-23T23:59:38.252Z,12.25
